sensor_id;sensor_type;location;lat;lon;timestamp;pressure;altitude;pressure_sealevel;temperature;humidity
58955;BME280;45815;52.334;5.024;2022-12-01T00:00:13;102881.72;;;6.71;100.00
58955;BME280;45815;52.334;5.024;2022-12-01T00:02:38;102880.25;;;6.74;100.00
58955;BME280;45815;52.334;5.024;2022-12-01T00:05:04;102882.94;;;6.76;100.00
58955;BME280;45815;52.334;5.024;2022-12-01T00:07:29;102878.72;;;6.78;100.00
58955;BME280;45815;52.334;5.024;2022-12-01T00:09:54;102872.59;;;6.78;100.00
58955;BME280;45815;52.334;5.024;2022-12-01T00:12:38;102883.38;;;6.82;100.00
58955;BME280;45815;52.334;5.024;2022-12-01T00:15:09;102880.16;;;6.86;100.00
58955;BME280;45815;52.334;5.024;2022-12-01T00:17:35;102883.78;;;6.88;100.00
58955;BME280;45815;52.334;5.024;2022-12-01T00:20:01;102884.38;;;6.84;100.00
58955;BME280;45815;52.334;5.024;2022-12-01T00:22:26;102879.22;;;6.86;100.00
58955;BME280;45815;52.334;5.024;2022-12-01T00:24:51;102876.63;;;6.86;100.00
58955;BME280;45815;52.334;5.024;2022-12-01T00:27:17;102874.09;;;6.74;100.00
58955;BME280;45815;52.334;5.024;2022-12-01T00:29:44;102878.69;;;6.65;100.00
58955;BME280;45815;52.334;5.024;2022-12-01T00:32:09;102878.03;;;6.67;100.00
58955;BME280;45815;52.334;5.024;2022-12-01T00:34:35;102877.09;;;6.67;100.00
58955;BME280;45815;52.334;5.024;2022-12-01T00:37:02;102872.09;;;6.70;100.00
58955;BME280;45815;52.334;5.024;2022-12-01T00:39:27;102880.72;;;6.69;100.00
58955;BME280;45815;52.334;5.024;2022-12-01T00:41:53;102888.16;;;6.63;100.00
58955;BME280;45815;52.334;5.024;2022-12-01T00:44:18;102886.50;;;6.51;100.00
58955;BME280;45815;52.334;5.024;2022-12-01T00:46:43;102890.31;;;6.57;100.00
58955;BME280;45815;52.334;5.024;2022-12-01T00:49:12;102878.75;;;6.53;100.00
58955;BME280;45815;52.334;5.024;2022-12-01T00:51:38;102886.31;;;6.62;100.00
58955;BME280;45815;52.334;5.024;2022-12-01T00:54:04;102890.75;;;6.63;100.00
58955;BME280;45815;52.334;5.024;2022-12-01T00:56:29;102884.84;;;6.65;100.00
58955;BME280;45815;52.334;5.024;2022-12-01T00:58:54;102882.53;;;6.70;100.00
58955;BME280;45815;52.334;5.024;2022-12-01T01:01:20;102880.25;;;6.74;100.00
58955;BME280;45815;52.334;5.024;2022-12-01T01:03:46;102887.44;;;6.79;100.00
58955;BME280;45815;52.334;5.024;2022-12-01T01:06:11;102881.75;;;6.84;100.00
58955;BME280;45815;52.334;5.024;2022-12-01T01:08:38;102877.56;;;6.86;100.00
58955;BME280;45815;52.334;5.024;2022-12-01T01:11:05;102887.28;;;6.89;100.00
58955;BME280;45815;52.334;5.024;2022-12-01T01:13:32;102885.56;;;6.89;100.00
58955;BME280;45815;52.334;5.024;2022-12-01T01:18:26;102889.59;;;6.84;100.00
58955;BME280;45815;52.334;5.024;2022-12-01T01:21:00;102880.94;;;6.72;100.00
58955;BME280;45815;52.334;5.024;2022-12-01T01:23:26;102889.16;;;6.78;100.00
58955;BME280;45815;52.334;5.024;2022-12-01T01:25:51;102897.00;;;6.78;100.00
58955;BME280;45815;52.334;5.024;2022-12-01T01:28:18;102897.00;;;6.78;100.00
58955;BME280;45815;52.334;5.024;2022-12-01T01:30:44;102897.81;;;6.77;100.00
58955;BME280;45815;52.334;5.024;2022-12-01T01:33:09;102880.94;;;6.72;100.00
58955;BME280;45815;52.334;5.024;2022-12-01T01:35:35;102888.38;;;6.79;100.00
58955;BME280;45815;52.334;5.024;2022-12-01T01:38:00;102897.13;;;6.80;100.00
58955;BME280;45815;52.334;5.024;2022-12-01T01:40:26;102890.69;;;6.74;100.00
58955;BME280;45815;52.334;5.024;2022-12-01T01:42:51;102903.94;;;6.78;100.00
58955;BME280;45815;52.334;5.024;2022-12-01T01:45:28;102908.94;;;6.74;100.00
58955;BME280;45815;52.334;5.024;2022-12-01T01:47:55;102907.25;;;6.75;100.00
58955;BME280;45815;52.334;5.024;2022-12-01T01:50:25;102912.47;;;6.75;100.00
58955;BME280;45815;52.334;5.024;2022-12-01T01:52:57;102911.66;;;6.76;100.00
58955;BME280;45815;52.334;5.024;2022-12-01T01:55:23;102907.44;;;6.78;100.00
58955;BME280;45815;52.334;5.024;2022-12-01T01:57:51;102908.41;;;6.67;100.00
58955;BME280;45815;52.334;5.024;2022-12-01T02:00:19;102903.81;;;6.63;100.00
58955;BME280;45815;52.334;5.024;2022-12-01T02:02:46;102902.56;;;6.58;100.00
58955;BME280;45815;52.334;5.024;2022-12-01T02:05:33;102903.56;;;6.46;100.00
58955;BME280;45815;52.334;5.024;2022-12-01T02:08:00;102900.34;;;6.50;100.00
58955;BME280;45815;52.334;5.024;2022-12-01T02:18:46;102896.72;;;6.48;100.00
58955;BME280;45815;52.334;5.024;2022-12-01T02:35:30;102888.31;;;6.52;100.00
58955;BME280;45815;52.334;5.024;2022-12-01T02:40:53;102876.84;;;6.37;100.00
58955;BME280;45815;52.334;5.024;2022-12-01T02:43:34;102885.50;;;6.49;100.00
58955;BME280;45815;52.334;5.024;2022-12-01T02:46:24;102887.78;;;6.45;100.00
58955;BME280;45815;52.334;5.024;2022-12-01T02:48:53;102884.91;;;6.53;100.00
58955;BME280;45815;52.334;5.024;2022-12-01T02:51:27;102884.69;;;6.50;100.00
58955;BME280;45815;52.334;5.024;2022-12-01T02:53:55;102879.06;;;6.58;100.00
58955;BME280;45815;52.334;5.024;2022-12-01T02:56:22;102881.91;;;6.61;100.00
58955;BME280;45815;52.334;5.024;2022-12-01T02:58:48;102887.13;;;6.61;100.00
58955;BME280;45815;52.334;5.024;2022-12-01T03:06:53;102876.69;;;6.61;100.00
58955;BME280;45815;52.334;5.024;2022-12-01T03:12:19;102880.72;;;6.69;100.00
58955;BME280;45815;52.334;5.024;2022-12-01T03:17:26;102885.94;;;6.69;100.00
58955;BME280;45815;52.334;5.024;2022-12-01T03:20:04;102884.22;;;6.69;100.00
58955;BME280;45815;52.334;5.024;2022-12-01T03:22:40;102886.75;;;6.68;100.00
58955;BME280;45815;52.334;5.024;2022-12-01T03:25:06;102891.47;;;6.73;100.00
58955;BME280;45815;52.334;5.024;2022-12-01T03:27:36;102883.31;;;6.69;100.00
58955;BME280;45815;52.334;5.024;2022-12-01T03:30:06;102889.34;;;6.68;100.00
58955;BME280;45815;52.334;5.024;2022-12-01T03:32:48;102894.78;;;6.71;100.00
58955;BME280;45815;52.334;5.024;2022-12-01T03:35:28;102889.13;;;6.65;100.00
58955;BME280;45815;52.334;5.024;2022-12-01T03:38:04;102894.06;;;6.73;100.00
58955;BME280;45815;52.334;5.024;2022-12-01T03:40:33;102901.63;;;6.82;100.00
58955;BME280;45815;52.334;5.024;2022-12-01T03:43:10;102887.44;;;6.79;100.00
58955;BME280;45815;52.334;5.024;2022-12-01T03:48:19;102895.81;;;6.86;100.00
58955;BME280;45815;52.334;5.024;2022-12-01T03:50:53;102892.41;;;6.87;100.00
58955;BME280;45815;52.334;5.024;2022-12-01T03:53:24;102889.00;;;6.88;100.00
58955;BME280;45815;52.334;5.024;2022-12-01T03:55:56;102885.56;;;6.89;100.00
58955;BME280;45815;52.334;5.024;2022-12-01T03:58:26;102892.50;;;6.89;100.00
58955;BME280;45815;52.334;5.024;2022-12-01T04:00:54;102893.41;;;6.89;100.00
58955;BME280;45815;52.334;5.024;2022-12-01T04:03:25;102884.69;;;6.89;100.00
58955;BME280;45815;52.334;5.024;2022-12-01T04:05:50;102882.84;;;6.88;100.00
58955;BME280;45815;52.334;5.024;2022-12-01T04:08:16;102890.69;;;6.88;100.00
58955;BME280;45815;52.334;5.024;2022-12-01T04:10:41;102873.34;;;6.88;100.00
58955;BME280;45815;52.334;5.024;2022-12-01T04:13:07;102881.06;;;6.87;100.00
58955;BME280;45815;52.334;5.024;2022-12-01T04:15:40;102875.72;;;6.85;100.00
58955;BME280;45815;52.334;5.024;2022-12-01T04:18:05;102870.44;;;6.84;100.00
58955;BME280;45815;52.334;5.024;2022-12-01T04:20:31;102883.38;;;6.82;100.00
58955;BME280;45815;52.334;5.024;2022-12-01T04:22:56;102877.25;;;6.82;100.00
58955;BME280;45815;52.334;5.024;2022-12-01T04:25:22;102876.31;;;6.81;100.00
58955;BME280;45815;52.334;5.024;2022-12-01T04:27:47;102877.94;;;6.79;100.00
58955;BME280;45815;52.334;5.024;2022-12-01T04:30:13;102885.84;;;6.81;100.00
58955;BME280;45815;52.334;5.024;2022-12-01T04:32:40;102887.69;;;6.82;100.00
58955;BME280;45815;52.334;5.024;2022-12-01T04:35:07;102892.09;;;6.83;100.00
58955;BME280;45815;52.334;5.024;2022-12-01T04:37:33;102876.50;;;6.71;100.00
58955;BME280;45815;52.334;5.024;2022-12-01T04:39:59;102895.28;;;6.79;100.00
58955;BME280;45815;52.334;5.024;2022-12-01T04:42:24;102893.38;;;6.76;100.00
58955;BME280;45815;52.334;5.024;2022-12-01T04:44:49;102894.97;;;6.74;100.00
58955;BME280;45815;52.334;5.024;2022-12-01T04:47:15;102898.28;;;6.71;100.00
58955;BME280;45815;52.334;5.024;2022-12-01T04:49:40;102898.19;;;6.70;100.00
58955;BME280;45815;52.334;5.024;2022-12-01T04:52:06;102897.97;;;6.67;100.00
58955;BME280;45815;52.334;5.024;2022-12-01T04:54:31;102899.56;;;6.65;100.00
58955;BME280;45815;52.334;5.024;2022-12-01T04:56:57;102900.38;;;6.64;100.00
58955;BME280;45815;52.334;5.024;2022-12-01T04:59:22;102900.25;;;6.62;100.00
58955;BME280;45815;52.334;5.024;2022-12-01T05:01:48;102892.75;;;6.53;100.00
58955;BME280;45815;52.334;5.024;2022-12-01T05:04:14;102898.47;;;6.61;100.00
58955;BME280;45815;52.334;5.024;2022-12-01T05:06:40;102912.31;;;6.60;100.00
58955;BME280;45815;52.334;5.024;2022-12-01T05:09:05;102909.50;;;6.57;100.00
58955;BME280;45815;52.334;5.024;2022-12-01T05:11:31;102905.78;;;6.53;100.00
58955;BME280;45815;52.334;5.024;2022-12-01T05:13:58;102916.22;;;6.53;100.00
58955;BME280;45815;52.334;5.024;2022-12-01T05:16:26;102915.97;;;6.50;100.00
58955;BME280;45815;52.334;5.024;2022-12-01T05:18:56;102908.78;;;6.46;100.00
58955;BME280;45815;52.334;5.024;2022-12-01T05:21:42;102893.19;;;6.34;100.00
58955;BME280;45815;52.334;5.024;2022-12-01T05:24:09;102906.75;;;6.42;100.00
58955;BME280;45815;52.334;5.024;2022-12-01T05:26:35;102905.72;;;6.40;100.00
58955;BME280;45815;52.334;5.024;2022-12-01T05:29:01;102903.94;;;6.39;100.00
58955;BME280;45815;52.334;5.024;2022-12-01T05:31:26;102908.13;;;6.37;100.00
58955;BME280;45815;52.334;5.024;2022-12-01T05:33:52;102921.94;;;6.36;100.00
58955;BME280;45815;52.334;5.024;2022-12-01T05:36:17;102916.66;;;6.34;100.00
58955;BME280;45815;52.334;5.024;2022-12-01T05:38:42;102911.31;;;6.33;100.00
58955;BME280;45815;52.334;5.024;2022-12-01T05:41:09;102911.13;;;6.30;100.00
58955;BME280;45815;52.334;5.024;2022-12-01T05:43:34;102902.38;;;6.29;100.00
58955;BME280;45815;52.334;5.024;2022-12-01T05:46:00;102908.13;;;6.37;100.00
58955;BME280;45815;52.334;5.024;2022-12-01T05:48:25;102901.53;;;6.42;100.00
58955;BME280;45815;52.334;5.024;2022-12-01T05:50:50;102906.03;;;6.45;100.00
58955;BME280;45815;52.334;5.024;2022-12-01T05:53:16;102900.00;;;6.46;100.00
58955;BME280;45815;52.334;5.024;2022-12-01T05:55:41;102904.53;;;6.48;100.00
58955;BME280;45815;52.334;5.024;2022-12-01T05:58:07;102903.63;;;6.48;100.00
58955;BME280;45815;52.334;5.024;2022-12-01T06:00:33;102905.56;;;6.50;100.00
58955;BME280;45815;52.334;5.024;2022-12-01T06:02:58;102907.38;;;6.51;100.00
58955;BME280;45815;52.334;5.024;2022-12-01T06:05:24;102905.34;;;6.47;100.00
58955;BME280;45815;52.334;5.024;2022-12-01T06:07:49;102902.84;;;6.49;100.00
58955;BME280;45815;52.334;5.024;2022-12-01T06:10:15;102906.38;;;6.49;100.00
58955;BME280;45815;52.334;5.024;2022-12-01T06:12:40;102892.69;;;6.40;100.00
58955;BME280;45815;52.334;5.024;2022-12-01T06:15:06;102900.94;;;6.46;100.00
58955;BME280;45815;52.334;5.024;2022-12-01T06:17:32;102912.16;;;6.45;100.00
58955;BME280;45815;52.334;5.024;2022-12-01T06:19:58;102916.47;;;6.45;100.00
58955;BME280;45815;52.334;5.024;2022-12-01T06:22:26;102919.78;;;6.42;100.00
58955;BME280;45815;52.334;5.024;2022-12-01T06:24:52;102915.34;;;6.41;100.00
58955;BME280;45815;52.334;5.024;2022-12-01T06:27:17;102914.38;;;6.39;100.00
58955;BME280;45815;52.334;5.024;2022-12-01T06:29:43;102917.19;;;6.42;100.00
58955;BME280;45815;52.334;5.024;2022-12-01T06:32:08;102915.34;;;6.41;100.00
58955;BME280;45815;52.334;5.024;2022-12-01T06:34:34;102921.50;;;6.42;100.00
58955;BME280;45815;52.334;5.024;2022-12-01T06:36:59;102916.28;;;6.42;100.00
58955;BME280;45815;52.334;5.024;2022-12-01T06:39:24;102925.00;;;6.42;100.00
58955;BME280;45815;52.334;5.024;2022-12-01T06:41:50;102920.00;;;6.45;100.00
58955;BME280;45815;52.334;5.024;2022-12-01T06:44:15;102925.53;;;6.50;100.00
58955;BME280;45815;52.334;5.024;2022-12-01T06:46:40;102936.84;;;6.50;100.00
58955;BME280;45815;52.334;5.024;2022-12-01T06:49:10;102930.53;;;6.47;100.00
58955;BME280;45815;52.334;5.024;2022-12-01T06:51:36;102931.22;;;6.44;100.00
58955;BME280;45815;52.334;5.024;2022-12-01T06:54:01;102943.91;;;6.51;100.00
58955;BME280;45815;52.334;5.024;2022-12-01T06:56:27;102946.59;;;6.53;100.00
58955;BME280;45815;52.334;5.024;2022-12-01T06:58:52;102945.94;;;6.55;100.00
58955;BME280;45815;52.334;5.024;2022-12-01T07:01:18;102929.66;;;6.46;100.00
58955;BME280;45815;52.334;5.024;2022-12-01T07:03:47;102931.56;;;6.49;100.00
58955;BME280;45815;52.334;5.024;2022-12-01T07:06:13;102943.53;;;6.59;100.00
58955;BME280;45815;52.334;5.024;2022-12-01T07:08:39;102948.16;;;6.63;100.00
58955;BME280;45815;52.334;5.024;2022-12-01T07:11:06;102942.94;;;6.63;100.00
58955;BME280;45815;52.334;5.024;2022-12-01T07:13:33;102941.13;;;6.62;100.00
58955;BME280;45815;52.334;5.024;2022-12-01T07:15:58;102948.16;;;6.63;100.00
58955;BME280;45815;52.334;5.024;2022-12-01T07:18:24;102949.75;;;6.61;100.00
58955;BME280;45815;52.334;5.024;2022-12-01T07:20:49;102957.59;;;6.61;100.00
58955;BME280;45815;52.334;5.024;2022-12-01T07:23:15;102966.19;;;6.60;100.00
58955;BME280;45815;52.334;5.024;2022-12-01T07:25:40;102964.47;;;6.60;100.00
58955;BME280;45815;52.334;5.024;2022-12-01T07:28:06;102970.63;;;6.61;100.00
58955;BME280;45815;52.334;5.024;2022-12-01T07:30:31;102962.69;;;6.59;100.00
58955;BME280;45815;52.334;5.024;2022-12-01T07:32:56;102960.41;;;6.64;100.00
58955;BME280;45815;52.334;5.024;2022-12-01T07:35:22;102969.03;;;6.63;100.00
58955;BME280;45815;52.334;5.024;2022-12-01T07:37:53;102969.81;;;6.62;100.00
58955;BME280;45815;52.334;5.024;2022-12-01T07:40:18;102969.03;;;6.63;100.00
58955;BME280;45815;52.334;5.024;2022-12-01T07:42:43;102970.84;;;6.64;100.00
58955;BME280;45815;52.334;5.024;2022-12-01T07:45:09;102972.63;;;6.65;100.00
58955;BME280;45815;52.334;5.024;2022-12-01T07:47:34;102969.81;;;6.62;100.00
58955;BME280;45815;52.334;5.024;2022-12-01T07:50:00;102981.38;;;6.65;100.00
58955;BME280;45815;52.334;5.024;2022-12-01T07:52:25;102986.00;;;6.69;100.00
58955;BME280;45815;52.334;5.024;2022-12-01T07:54:50;102990.44;;;6.70;100.00
58955;BME280;45815;52.334;5.024;2022-12-01T07:57:19;102987.81;;;6.70;100.00
58955;BME280;45815;52.334;5.024;2022-12-01T07:59:45;102999.16;;;6.71;100.00
58955;BME280;45815;52.334;5.024;2022-12-01T08:02:10;102993.38;;;6.75;100.00
58955;BME280;45815;52.334;5.024;2022-12-01T08:04:36;102996.56;;;6.71;100.00
58955;BME280;45815;52.334;5.024;2022-12-01T08:07:01;103004.81;;;6.77;100.00
58955;BME280;45815;52.334;5.024;2022-12-01T08:09:26;102999.59;;;6.77;100.00
58955;BME280;45815;52.334;5.024;2022-12-01T08:11:52;103005.03;;;6.80;100.00
58955;BME280;45815;52.334;5.024;2022-12-01T08:14:17;103004.31;;;6.83;100.00
58955;BME280;45815;52.334;5.024;2022-12-01T08:16:43;103002.53;;;6.82;100.00
58955;BME280;45815;52.334;5.024;2022-12-01T08:19:11;103012.97;;;6.82;100.00
58955;BME280;45815;52.334;5.024;2022-12-01T08:21:36;103008.84;;;6.85;100.00
58955;BME280;45815;52.334;5.024;2022-12-01T08:24:02;102989.38;;;6.80;100.00
58955;BME280;45815;52.334;5.024;2022-12-01T08:26:29;102999.09;;;6.83;100.00
58955;BME280;45815;52.334;5.024;2022-12-01T08:28:54;103006.09;;;6.95;100.00
58955;BME280;45815;52.334;5.024;2022-12-01T08:31:22;103003.81;;;7.00;100.00
58955;BME280;45815;52.334;5.024;2022-12-01T08:33:49;103004.69;;;7.01;100.00
58955;BME280;45815;52.334;5.024;2022-12-01T08:36:15;103002.78;;;6.98;100.00
58955;BME280;45815;52.334;5.024;2022-12-01T08:38:44;103001.06;;;6.98;100.00
58955;BME280;45815;52.334;5.024;2022-12-01T08:41:10;103001.06;;;6.98;100.00
58955;BME280;45815;52.334;5.024;2022-12-01T08:43:36;103006.50;;;7.02;100.00
58955;BME280;45815;52.334;5.024;2022-12-01T08:46:07;103005.78;;;7.04;100.00
58955;BME280;45815;52.334;5.024;2022-12-01T08:48:33;103001.69;;;7.08;100.00
58955;BME280;45815;52.334;5.024;2022-12-01T08:53:34;103004.94;;;7.17;100.00
58955;BME280;45815;52.334;5.024;2022-12-01T08:56:05;103010.16;;;7.17;100.00
58955;BME280;45815;52.334;5.024;2022-12-01T08:58:31;103003.72;;;7.12;100.00
58955;BME280;45815;52.334;5.024;2022-12-01T09:01:09;102998.78;;;7.03;100.00
58955;BME280;45815;52.334;5.024;2022-12-01T09:03:36;102993.16;;;7.10;100.00
58955;BME280;45815;52.334;5.024;2022-12-01T09:06:16;102995.47;;;7.06;100.00
58955;BME280;45815;52.334;5.024;2022-12-01T09:08:43;102991.44;;;7.11;100.00
58955;BME280;45815;52.334;5.024;2022-12-01T09:11:14;102994.19;;;7.12;100.00
58955;BME280;45815;52.334;5.024;2022-12-01T09:13:41;102995.28;;;7.16;100.00
58955;BME280;45815;52.334;5.024;2022-12-01T09:16:11;102990.06;;;7.16;100.00
58955;BME280;45815;52.334;5.024;2022-12-01T09:18:36;102985.66;;;7.15;100.00
58955;BME280;45815;52.334;5.024;2022-12-01T09:21:27;102995.59;;;7.21;100.00
58955;BME280;45815;52.334;5.024;2022-12-01T09:23:55;102991.69;;;7.27;100.00
58955;BME280;45815;52.334;5.024;2022-12-01T09:26:21;102999.72;;;7.30;100.00
58955;BME280;45815;52.334;5.024;2022-12-01T09:28:48;102998.97;;;7.45;100.00
58955;BME280;45815;52.334;5.024;2022-12-01T09:31:15;103001.38;;;7.55;100.00
58955;BME280;45815;52.334;5.024;2022-12-01T09:33:41;102998.94;;;7.58;100.00
58955;BME280;45815;52.334;5.024;2022-12-01T09:36:07;102985.50;;;7.52;100.00
58955;BME280;45815;52.334;5.024;2022-12-01T09:38:34;102991.09;;;7.58;100.00
58955;BME280;45815;52.334;5.024;2022-12-01T09:41:03;103001.56;;;7.58;100.00
58955;BME280;45815;52.334;5.024;2022-12-01T09:43:39;102990.09;;;7.56;100.00
58955;BME280;45815;52.334;5.024;2022-12-01T09:46:10;102987.69;;;7.59;100.00
58955;BME280;45815;52.334;5.024;2022-12-01T09:48:42;102991.09;;;7.58;100.00
58955;BME280;45815;52.334;5.024;2022-12-01T09:51:20;103002.69;;;7.61;100.00
58955;BME280;45815;52.334;5.024;2022-12-01T09:53:58;102991.41;;;7.63;100.00
58955;BME280;45815;52.334;5.024;2022-12-01T09:56:27;103002.97;;;7.66;100.00
58955;BME280;45815;52.334;5.024;2022-12-01T09:58:56;103001.47;;;7.56;100.00
58955;BME280;45815;52.334;5.024;2022-12-01T10:01:37;102994.72;;;7.47;100.00
58955;BME280;45815;52.334;5.024;2022-12-01T10:04:36;102994.13;;;7.37;100.00
58955;BME280;45815;52.334;5.024;2022-12-01T10:07:24;102992.59;;;7.41;100.00
58955;BME280;45815;52.334;5.024;2022-12-01T10:09:58;102993.94;;;7.48;100.00
58955;BME280;45815;52.334;5.024;2022-12-01T10:12:29;102992.31;;;7.50;100.00
58955;BME280;45815;52.334;5.024;2022-12-01T10:15:12;102992.50;;;7.53;100.00
58955;BME280;45815;52.334;5.024;2022-12-01T10:20:30;102978.16;;;7.59;100.00
58955;BME280;45815;52.334;5.024;2022-12-01T10:26:13;102981.66;;;7.73;100.00
58955;BME280;45815;52.334;5.024;2022-12-01T10:28:48;102975.00;;;7.78;100.00
58955;BME280;45815;52.334;5.024;2022-12-01T10:34:02;102960.81;;;7.88;100.00
58955;BME280;45815;52.334;5.024;2022-12-01T10:36:31;102943.22;;;7.86;100.00
58955;BME280;45815;52.334;5.024;2022-12-01T10:38:58;102959.19;;;8.03;100.00
58955;BME280;45815;52.334;5.024;2022-12-01T10:41:26;102961.69;;;8.15;100.00
58955;BME280;45815;52.334;5.024;2022-12-01T10:43:57;102955.84;;;8.19;100.00
58955;BME280;45815;52.334;5.024;2022-12-01T10:48:56;102962.47;;;8.14;100.00
58955;BME280;45815;52.334;5.024;2022-12-01T10:51:21;102955.03;;;8.20;100.00
58955;BME280;45815;52.334;5.024;2022-12-01T10:53:47;102955.19;;;8.23;100.00
58955;BME280;45815;52.334;5.024;2022-12-01T10:56:18;102952.81;;;8.27;100.00
58955;BME280;45815;52.334;5.024;2022-12-01T10:58:48;102957.38;;;8.31;100.00
58955;BME280;45815;52.334;5.024;2022-12-01T11:01:22;102951.16;;;8.29;100.00
58955;BME280;45815;52.334;5.024;2022-12-01T11:04:38;102951.69;;;8.23;100.00
58955;BME280;45815;52.334;5.024;2022-12-01T11:06:38;102949.19;;;8.24;100.00
58955;BME280;45815;52.334;5.024;2022-12-01T11:09:06;102947.28;;;8.22;100.00
58955;BME280;45815;52.334;5.024;2022-12-01T11:11:41;102942.75;;;8.19;100.00
58955;BME280;45815;52.334;5.024;2022-12-01T11:14:20;102944.38;;;8.17;100.00
58955;BME280;45815;52.334;5.024;2022-12-01T11:16:49;102938.50;;;8.21;100.00
58955;BME280;45815;52.334;5.024;2022-12-01T11:21:52;102943.31;;;8.29;100.00
58955;BME280;45815;52.334;5.024;2022-12-01T11:26:56;102939.56;;;8.38;100.00
58955;BME280;45815;52.334;5.024;2022-12-01T11:29:34;102934.22;;;8.37;100.00
58955;BME280;45815;52.334;5.024;2022-12-01T11:32:14;102927.88;;;8.47;100.00
58955;BME280;45815;52.334;5.024;2022-12-01T11:34:47;102929.53;;;8.59;100.00
58955;BME280;45815;52.334;5.024;2022-12-01T11:37:18;102930.28;;;8.72;100.00
58955;BME280;45815;52.334;5.024;2022-12-01T11:39:45;102919.19;;;8.76;100.00
58955;BME280;45815;52.334;5.024;2022-12-01T11:42:29;102923.25;;;8.85;100.00
58955;BME280;45815;52.334;5.024;2022-12-01T11:45:06;102921.81;;;8.91;100.00
58955;BME280;45815;52.334;5.024;2022-12-01T11:47:33;102919.44;;;9.10;100.00
58955;BME280;45815;52.334;5.024;2022-12-01T11:50:01;102915.81;;;9.08;100.00
58955;BME280;45815;52.334;5.024;2022-12-01T11:52:32;102921.91;;;9.07;100.00
58955;BME280;45815;52.334;5.024;2022-12-01T11:57:40;102918.00;;;9.15;100.00
58955;BME280;45815;52.334;5.024;2022-12-01T12:05:44;102899.97;;;9.99;100.00
58955;BME280;45815;52.334;5.024;2022-12-01T12:09:10;102902.81;;;10.85;100.00
58955;BME280;45815;52.334;5.024;2022-12-01T12:20:24;102882.50;;;13.31;100.00
58955;BME280;45815;52.334;5.024;2022-12-01T12:26:23;102864.28;;;14.06;100.00
58955;BME280;45815;52.334;5.024;2022-12-01T12:37:20;102865.59;;;16.04;100.00
58955;BME280;45815;52.334;5.024;2022-12-01T12:43:20;102869.81;;;16.61;100.00
58955;BME280;45815;52.334;5.024;2022-12-01T12:46:11;102863.06;;;16.73;100.00
58955;BME280;45815;52.334;5.024;2022-12-01T12:49:03;102856.19;;;17.14;100.00
58955;BME280;45815;52.334;5.024;2022-12-01T12:51:43;102850.66;;;17.43;100.00
58955;BME280;45815;52.334;5.024;2022-12-01T12:54:22;102850.19;;;17.61;100.00
58955;BME280;45815;52.334;5.024;2022-12-01T12:56:53;102850.16;;;17.21;100.00
58955;BME280;45815;52.334;5.024;2022-12-01T12:59:25;102854.25;;;16.40;100.00
58955;BME280;45815;52.334;5.024;2022-12-01T13:02:26;102853.31;;;15.76;100.00
58955;BME280;45815;52.334;5.024;2022-12-01T13:07:30;102860.97;;;14.60;100.00
58955;BME280;45815;52.334;5.024;2022-12-01T13:12:37;102856.91;;;13.73;100.00
58955;BME280;45815;52.334;5.024;2022-12-01T13:15:17;102846.28;;;13.06;100.00
58955;BME280;45815;52.334;5.024;2022-12-01T13:20:19;102852.84;;;12.33;100.00
58955;BME280;45815;52.334;5.024;2022-12-01T13:22:46;102850.31;;;11.96;100.00
58955;BME280;45815;52.334;5.024;2022-12-01T13:25:26;102851.00;;;11.54;100.00
58955;BME280;45815;52.334;5.024;2022-12-01T13:27:54;102860.94;;;11.24;100.00
58955;BME280;45815;52.334;5.024;2022-12-01T13:30:23;102862.13;;;10.95;100.00
58955;BME280;45815;52.334;5.024;2022-12-01T13:32:57;102862.97;;;10.60;100.00
58955;BME280;45815;52.334;5.024;2022-12-01T13:35:34;102873.56;;;10.61;100.00
58955;BME280;45815;52.334;5.024;2022-12-01T13:40:46;102841.69;;;11.43;100.00
58955;BME280;45815;52.334;5.024;2022-12-01T13:43:18;102847.53;;;11.55;100.00
58955;BME280;45815;52.334;5.024;2022-12-01T13:45:45;102852.53;;;11.31;100.00
58955;BME280;45815;52.334;5.024;2022-12-01T13:51:02;102850.91;;;10.63;100.00
58955;BME280;45815;52.334;5.024;2022-12-01T13:53:33;102846.19;;;10.23;100.00
58955;BME280;45815;52.334;5.024;2022-12-01T14:06:41;102825.53;;;9.01;100.00
58955;BME280;45815;52.334;5.024;2022-12-01T14:09:32;102837.28;;;8.93;100.00
58955;BME280;45815;52.334;5.024;2022-12-01T14:12:02;102842.13;;;8.87;100.00
58955;BME280;45815;52.334;5.024;2022-12-01T14:14:35;102842.59;;;8.80;100.00
58955;BME280;45815;52.334;5.024;2022-12-01T14:17:01;102845.22;;;8.80;100.00
58955;BME280;45815;52.334;5.024;2022-12-01T14:19:45;102850.84;;;8.71;100.00
58955;BME280;45815;52.334;5.024;2022-12-01T14:23:33;102842.97;;;8.41;100.00
58955;BME280;45815;52.334;5.024;2022-12-01T14:25:35;102847.56;;;8.45;100.00
58955;BME280;45815;52.334;5.024;2022-12-01T14:28:02;102853.13;;;8.37;100.00
58955;BME280;45815;52.334;5.024;2022-12-01T14:36:23;102845.84;;;8.03;100.00
58955;BME280;45815;52.334;5.024;2022-12-01T14:44:01;102856.34;;;7.90;100.00
58955;BME280;45815;52.334;5.024;2022-12-01T14:49:54;102841.22;;;7.71;100.00
58955;BME280;45815;52.334;5.024;2022-12-01T14:52:29;102833.81;;;7.64;100.00
58955;BME280;45815;52.334;5.024;2022-12-01T14:55:03;102840.63;;;7.61;100.00
58955;BME280;45815;52.334;5.024;2022-12-01T14:57:38;102844.69;;;7.56;100.00
58955;BME280;45815;52.334;5.024;2022-12-01T15:00:14;102845.78;;;7.47;100.00
58955;BME280;45815;52.334;5.024;2022-12-01T15:02:53;102842.88;;;7.42;100.00
58955;BME280;45815;52.334;5.024;2022-12-01T15:05:21;102847.81;;;7.37;100.00
58955;BME280;45815;52.334;5.024;2022-12-01T15:07:49;102845.00;;;7.34;100.00
58955;BME280;45815;52.334;5.024;2022-12-01T15:10:22;102849.63;;;7.25;100.00
58955;BME280;45815;52.334;5.024;2022-12-01T15:12:49;102841.72;;;7.24;100.00